Time;durP1;ratioP1;P1;durP2;ratioP2;P2;SDS_P1;SDS_P2;PMS_P1;PMS_P2;Temp;Humidity;BMP_temperature;BMP_pressure;BME280_temperature;BME280_humidity;BME280_pressure;Samples;Min_cycle;Max_cycle;Signal;HPM_P1;HPM_P2
2022/09/13 00:02:17;;;;;;;1.10;1.10;;;23.60;65.00;;;;;;4988294;28;43428;-76
2022/09/13 00:04:46;;;;;;;1.10;1.10;;;23.50;65.20;;;;;;4990160;28;43432;-76
2022/09/13 00:07:14;;;;;;;1.10;1.10;;;23.50;65.60;;;;;;4988579;28;43616;-76
2022/09/13 00:09:42;;;;;;;1.07;1.07;;;23.50;65.40;;;;;;4975827;28;44739;-76
2022/09/13 00:12:14;;;;;;;1.07;1.07;;;23.50;65.40;;;;;;4980502;28;44062;-76
2022/09/13 00:14:42;;;;;;;1.20;1.20;;;23.50;66.10;;;;;;4989962;28;43419;-76
2022/09/13 00:17:10;;;;;;;1.20;1.20;;;23.40;65.90;;;;;;5000919;28;43929;-76
2022/09/13 00:19:38;;;;;;;1.17;1.10;;;23.50;65.90;;;;;;4994915;28;43559;-76
2022/09/13 00:22:07;;;;;;;1.17;1.17;;;23.60;65.60;;;;;;4978326;28;44055;-77
2022/09/13 00:24:36;;;;;;;1.40;1.40;;;23.70;65.10;;;;;;4992611;28;43476;-75
2022/09/13 00:27:04;;;;;;;1.17;1.17;;;23.80;64.70;;;;;;4992794;28;43588;-76
2022/09/13 00:29:32;;;;;;;1.10;1.10;;;23.90;64.70;;;;;;4991345;28;43429;-77
2022/09/13 00:32:00;;;;;;;1.10;1.10;;;23.80;64.50;;;;;;4971530;28;43512;-78
2022/09/13 00:34:28;;;;;;;1.10;1.10;;;23.80;64.70;;;;;;4992605;28;43350;-75
2022/09/13 00:36:56;;;;;;;1.07;1.07;;;23.70;65.10;;;;;;4993276;28;43611;-76
2022/09/13 00:39:25;;;;;;;1.20;1.20;;;23.60;65.20;;;;;;4992258;28;43428;-76
2022/09/13 00:41:53;;;;;;;1.20;1.20;;;23.60;65.20;;;;;;4998780;28;43472;-75
2022/09/13 00:44:56;;;;;;;1.10;1.10;;;23.60;65.20;;;;;;4977627;28;43583;-76
2022/09/13 00:47:27;;;;;;;1.20;1.20;;;23.50;65.20;;;;;;4995107;28;44001;-76
2022/09/13 00:49:56;;;;;;;1.30;1.30;;;23.50;65.80;;;;;;4998556;28;43629;-76
2022/09/13 00:52:24;;;;;;;1.07;1.07;;;23.50;65.70;;;;;;4987950;28;44099;-77
2022/09/13 00:54:56;;;;;;;1.13;1.13;;;23.50;65.50;;;;;;4992379;28;44236;-75
2022/09/13 00:57:24;;;;;;;1.20;1.00;;;23.50;65.50;;;;;;4994094;28;45668;-76
2022/09/13 00:59:54;;;;;;;1.30;1.30;;;23.40;65.90;;;;;;4972156;28;44860;-77
2022/09/13 01:02:21;;;;;;;1.03;1.00;;;23.50;66.00;;;;;;4992720;28;44200;-72
2022/09/13 01:04:49;;;;;;;1.23;1.23;;;23.50;65.60;;;;;;4987571;28;43829;-71
2022/09/13 01:07:17;;;;;;;1.03;1.03;;;23.70;66.00;;;;;;4998066;28;43929;-73
2022/09/13 01:09:46;;;;;;;1.13;1.13;;;23.80;64.80;;;;;;4990827;28;43392;-73
2022/09/13 01:12:19;;;;;;;1.03;1.03;;;23.80;64.70;;;;;;4995381;28;43361;-72
2022/09/13 01:14:47;;;;;;;1.00;1.00;;;23.80;64.70;;;;;;4990193;28;43956;-72
2022/09/13 01:17:15;;;;;;;1.13;1.13;;;23.70;64.80;;;;;;4972848;28;45326;-71
2022/09/13 01:19:43;;;;;;;1.30;1.30;;;23.60;65.30;;;;;;4985569;28;43937;-73
2022/09/13 01:22:44;;;;;;;1.20;1.20;;;23.60;65.30;;;;;;4996158;28;43504;-73
2022/09/13 01:25:44;;;;;;;1.30;1.30;;;23.60;65.30;;;;;;4974847;28;43539;-72
2022/09/13 01:28:32;;;;;;;1.10;1.10;;;23.50;65.20;;;;;;4936427;28;44032;-72
2022/09/13 01:31:03;;;;;;;1.20;1.20;;;23.50;65.80;;;;;;4988560;28;43509;-72
2022/09/13 01:33:40;;;;;;;1.20;1.20;;;23.50;65.70;;;;;;4973039;28;43476;-73
2022/09/13 01:36:18;;;;;;;1.00;1.00;;;23.50;65.50;;;;;;4993097;28;43392;-73
2022/09/13 01:38:53;;;;;;;1.30;1.30;;;23.40;65.40;;;;;;4971616;28;47181;-72
2022/09/13 01:41:33;;;;;;;1.20;1.20;;;23.40;66.00;;;;;;4994714;28;43532;-72
2022/09/13 01:44:05;;;;;;;1.10;1.10;;;23.40;65.90;;;;;;4992083;28;44300;-74
2022/09/13 01:46:37;;;;;;;1.50;1.40;;;23.60;65.70;;;;;;4974943;28;44104;-74
2022/09/13 01:49:09;;;;;;;1.13;1.13;;;23.70;65.10;;;;;;4996190;28;43616;-72
2022/09/13 01:51:41;;;;;;;1.10;1.10;;;23.90;64.70;;;;;;4988291;28;44434;-73
2022/09/13 01:54:15;;;;;;;1.17;1.17;;;23.90;64.40;;;;;;4970853;28;43454;-73
2022/09/13 01:56:46;;;;;;;1.30;1.30;;;23.90;64.30;;;;;;4995398;28;43430;-73
2022/09/13 01:59:16;;;;;;;1.30;1.30;;;23.90;64.50;;;;;;4990851;28;43962;-74
2022/09/13 02:01:49;;;;;;;1.20;1.20;;;23.70;64.80;;;;;;5003921;28;44325;-71
2022/09/13 02:04:19;;;;;;;1.10;1.10;;;23.70;65.10;;;;;;4980775;28;44042;-72
2022/09/13 02:06:49;;;;;;;1.20;1.20;;;23.70;65.10;;;;;;4999156;28;43451;-71
2022/09/13 02:09:19;;;;;;;1.30;1.30;;;23.60;65.00;;;;;;4992917;28;43912;-73
2022/09/13 02:11:50;;;;;;;1.27;1.27;;;23.50;65.10;;;;;;4991235;28;43341;-72
2022/09/13 02:14:19;;;;;;;1.27;1.27;;;23.50;65.60;;;;;;4995566;28;43455;-72
2022/09/13 02:16:50;;;;;;;1.10;1.10;;;23.50;65.70;;;;;;4998007;28;43607;-72
2022/09/13 02:19:19;;;;;;;1.20;1.20;;;23.50;65.50;;;;;;4997145;28;43627;-72
2022/09/13 02:21:49;;;;;;;1.20;1.20;;;23.50;65.40;;;;;;4976315;28;45123;-73
2022/09/13 02:24:19;;;;;;;1.50;1.30;;;23.50;65.60;;;;;;4990109;28;43536;-73
2022/09/13 02:26:48;;;;;;;1.40;1.40;;;23.40;65.90;;;;;;4975740;28;43515;-72
2022/09/13 02:29:18;;;;;;;1.20;1.20;;;23.50;65.80;;;;;;5001207;28;43621;-74
2022/09/13 02:31:49;;;;;;;1.27;1.27;;;23.60;66.10;;;;;;4996377;28;44022;-71
2022/09/13 02:34:18;;;;;;;1.30;1.30;;;23.80;64.90;;;;;;4989284;28;43833;-73
2022/09/13 02:36:47;;;;;;;1.10;1.10;;;23.90;64.60;;;;;;4996834;28;43740;-75
2022/09/13 02:39:16;;;;;;;1.20;1.20;;;23.90;64.50;;;;;;4979474;28;46104;-73
2022/09/13 02:41:47;;;;;;;1.30;1.30;;;23.80;64.40;;;;;;4998433;28;44062;-73
2022/09/13 02:44:18;;;;;;;1.17;1.17;;;23.80;64.60;;;;;;4989510;28;43456;-73
2022/09/13 02:47:11;;;;;;;1.03;1.03;;;23.70;65.10;;;;;;4993849;28;43416;-72
2022/09/13 02:49:44;;;;;;;1.10;1.10;;;23.60;65.10;;;;;;4985496;28;43597;-73
2022/09/13 02:52:15;;;;;;;1.10;1.10;;;23.60;65.00;;;;;;4981830;28;44693;-72
2022/09/13 02:54:47;;;;;;;1.03;1.03;;;23.50;65.10;;;;;;5001222;28;43720;-74
2022/09/13 02:57:18;;;;;;;1.30;1.30;;;23.50;65.70;;;;;;4994623;28;43480;-74
2022/09/13 02:59:46;;;;;;;1.10;1.10;;;23.50;65.60;;;;;;4988600;28;43777;-73
2022/09/13 03:02:16;;;;;;;1.10;1.10;;;23.50;65.40;;;;;;4992138;28;43412;-71
2022/09/13 03:04:44;;;;;;;1.40;1.40;;;23.50;65.40;;;;;;4993909;28;43764;-73
2022/09/13 03:07:12;;;;;;;1.20;1.20;;;23.40;65.70;;;;;;4993040;28;43774;-73
2022/09/13 03:09:43;;;;;;;1.20;1.20;;;23.40;65.90;;;;;;4971794;28;45617;-74
2022/09/13 03:12:28;;;;;;;1.10;1.10;;;23.50;65.70;;;;;;4997224;28;43386;-73
2022/09/13 03:14:59;;;;;;;1.13;1.13;;;23.60;65.20;;;;;;4992467;28;43371;-71
2022/09/13 03:17:37;;;;;;;1.20;1.20;;;23.80;64.80;;;;;;4995741;28;43498;-71
2022/09/13 03:20:10;;;;;;;1.20;1.20;;;23.90;64.60;;;;;;4993563;28;43561;-73
2022/09/13 03:22:55;;;;;;;1.40;1.40;;;23.80;64.50;;;;;;4992959;28;43604;-73
2022/09/13 03:25:30;;;;;;;1.30;1.30;;;23.70;64.50;;;;;;4992318;28;44121;-72
2022/09/13 03:28:01;;;;;;;1.23;1.23;;;23.70;65.10;;;;;;4977254;28;43524;-76
2022/09/13 03:30:29;;;;;;;1.10;1.10;;;23.60;65.20;;;;;;4987661;28;43927;-73
2022/09/13 03:33:00;;;;;;;1.30;1.30;;;23.60;65.20;;;;;;4991550;28;43350;-72
2022/09/13 03:35:32;;;;;;;1.20;1.20;;;23.60;65.10;;;;;;4995976;28;43483;-74
2022/09/13 03:38:02;;;;;;;1.37;1.37;;;23.50;65.40;;;;;;4973922;28;43521;-74
2022/09/13 03:40:41;;;;;;;1.53;1.40;;;23.50;65.70;;;;;;4988303;28;43588;-72
2022/09/13 03:43:12;;;;;;;1.50;1.40;;;23.50;65.60;;;;;;4996521;28;43473;-72
2022/09/13 03:45:42;;;;;;;1.90;1.80;;;23.50;65.60;;;;;;4973979;28;43482;-72
2022/09/13 03:48:12;;;;;;;5.60;2.67;;;23.40;65.50;;;;;;4999531;28;43469;-72
2022/09/13 03:50:40;;;;;;;4.53;2.93;;;23.40;65.90;;;;;;4977567;28;45243;-72
2022/09/13 03:53:09;;;;;;;4.17;2.43;;;23.50;65.90;;;;;;4974454;28;44377;-73
2022/09/13 03:55:39;;;;;;;2.60;2.40;;;23.50;65.80;;;;;;4993477;28;43887;-72
2022/09/13 03:58:06;;;;;;;6.10;3.30;;;23.40;65.60;;;;;;4976919;28;43685;-72
2022/09/13 04:00:34;;;;;;;7.43;3.37;;;23.40;65.90;;;;;;4995148;28;43955;-72
2022/09/13 04:03:02;;;;;;;8.67;3.63;;;23.40;66.00;;;;;;4994465;28;43980;-73
2022/09/13 04:05:33;;;;;;;6.53;3.27;;;23.50;65.80;;;;;;5002392;28;43509;-73
2022/09/13 04:08:01;;;;;;;10.43;4.10;;;23.70;66.10;;;;;;5003462;28;43492;-73
2022/09/13 04:10:30;;;;;;;7.93;4.13;;;23.80;64.80;;;;;;4992531;28;45036;-72
2022/09/13 04:12:59;;;;;;;6.77;3.97;;;23.90;64.40;;;;;;4988404;28;43516;-73
2022/09/13 04:15:27;;;;;;;8.97;4.30;;;23.90;64.30;;;;;;4988551;28;43353;-74
2022/09/13 04:17:54;;;;;;;7.40;4.00;;;23.90;64.30;;;;;;4993883;28;44052;-73
2022/09/13 04:20:23;;;;;;;8.20;3.87;;;23.80;64.50;;;;;;5005644;28;44458;-72
2022/09/13 04:22:53;;;;;;;8.13;4.53;;;23.70;65.00;;;;;;4988646;28;43472;-73
2022/09/13 04:25:21;;;;;;;6.40;3.97;;;23.70;65.10;;;;;;4987814;28;43467;-73
2022/09/13 04:27:49;;;;;;;7.73;4.13;;;23.60;65.00;;;;;;4988541;28;43796;-72
2022/09/13 04:30:17;;;;;;;7.10;4.57;;;23.60;65.10;;;;;;4988364;28;43607;-72
2022/09/13 04:32:45;;;;;;;6.90;3.73;;;23.50;65.40;;;;;;4993600;28;43414;-72
2022/09/13 04:35:14;;;;;;;6.03;3.83;;;23.50;65.60;;;;;;4976614;28;44019;-71
2022/09/13 04:37:43;;;;;;;7.60;4.17;;;23.50;65.50;;;;;;5001379;28;43425;-74
2022/09/13 04:40:12;;;;;;;9.27;4.33;;;23.50;65.40;;;;;;4978909;28;45682;-72
2022/09/13 04:42:40;;;;;;;5.97;3.87;;;23.40;65.60;;;;;;4969351;28;44403;-73
2022/09/13 04:45:09;;;;;;;8.07;4.17;;;23.40;65.90;;;;;;4974854;28;43376;-73
2022/09/13 04:47:37;;;;;;;6.77;3.93;;;23.50;65.90;;;;;;4993395;28;43406;-72
2022/09/13 04:50:05;;;;;;;7.10;4.10;;;23.50;65.70;;;;;;4987799;28;43592;-71
2022/09/13 04:52:33;;;;;;;7.67;4.30;;;23.40;65.60;;;;;;4987713;28;43370;-71
2022/09/13 04:55:01;;;;;;;5.87;4.00;;;23.40;66.10;;;;;;4988820;28;43540;-72
2022/09/13 04:57:31;;;;;;;6.33;4.13;;;23.40;66.10;;;;;;4988417;28;43592;-73
2022/09/13 04:59:59;;;;;;;6.70;4.20;;;23.50;65.80;;;;;;4991724;28;43676;-73
2022/09/13 05:02:26;;;;;;;5.23;4.17;;;23.70;65.30;;;;;;4973273;28;44598;-73
2022/09/13 05:04:55;;;;;;;6.83;4.60;;;23.80;64.70;;;;;;4991442;28;43480;-72
2022/09/13 05:07:22;;;;;;;5.90;3.60;;;23.90;64.20;;;;;;4991750;28;43437;-72
2022/09/13 05:09:50;;;;;;;6.10;3.97;;;24.00;64.30;;;;;;4988777;28;43596;-71
2022/09/13 05:12:18;;;;;;;5.37;4.07;;;23.90;64.30;;;;;;4987078;28;43509;-72
2022/09/13 05:14:47;;;;;;;5.00;3.80;;;23.80;64.50;;;;;;4981195;28;43443;-72
2022/09/13 05:17:15;;;;;;;7.57;3.93;;;23.70;65.00;;;;;;4975295;28;43486;-74
2022/09/13 05:19:43;;;;;;;8.73;4.10;;;23.70;65.10;;;;;;4975483;28;45385;-71
2022/09/13 05:22:11;;;;;;;4.13;3.73;;;23.70;65.20;;;;;;4971597;28;44812;-72
2022/09/13 05:24:39;;;;;;;7.03;3.77;;;23.60;65.20;;;;;;4987265;28;43465;-72
2022/09/13 05:27:07;;;;;;;4.13;3.73;;;23.50;65.40;;;;;;4993450;28;43737;-72
2022/09/13 05:29:35;;;;;;;4.13;3.47;;;23.50;65.60;;;;;;4987582;28;44043;-74
2022/09/13 05:32:04;;;;;;;3.63;3.33;;;23.50;65.60;;;;;;4975819;28;44862;-72
2022/09/13 05:34:32;;;;;;;3.93;3.50;;;23.50;65.50;;;;;;4993442;28;43605;-74
2022/09/13 05:37:00;;;;;;;5.23;4.27;;;23.50;65.50;;;;;;5002119;28;43496;-72
2022/09/13 05:39:28;;;;;;;4.97;3.90;;;23.50;66.00;;;;;;4996902;28;45646;-73
2022/09/13 05:42:16;;;;;;;4.83;3.80;;;23.50;65.90;;;;;;5001386;28;43467;-72
2022/09/13 05:44:44;;;;;;;5.83;4.00;;;23.60;65.50;;;;;;4996918;28;43508;-72
2022/09/13 05:47:14;;;;;;;4.20;3.20;;;23.80;65.00;;;;;;4997979;28;43425;-71
2022/09/13 05:49:42;;;;;;;4.33;3.57;;;23.80;64.70;;;;;;4981489;28;45539;-71
2022/09/13 05:52:30;;;;;;;4.20;3.30;;;23.90;64.70;;;;;;4979403;28;44593;-71
2022/09/13 05:54:58;;;;;;;3.87;3.50;;;23.80;64.80;;;;;;4994132;28;43321;-74
2022/09/13 05:57:26;;;;;;;6.03;3.30;;;23.70;65.00;;;;;;4995119;28;43418;-75
2022/09/13 05:59:54;;;;;;;3.63;3.33;;;23.60;65.10;;;;;;4989885;28;44054;-72
2022/09/13 06:02:23;;;;;;;3.50;3.20;;;23.50;65.30;;;;;;4999587;28;43915;-72
2022/09/13 06:04:51;;;;;;;3.73;3.23;;;23.50;65.40;;;;;;4996597;28;43381;-73
2022/09/13 06:07:19;;;;;;;3.33;3.03;;;23.40;65.60;;;;;;4999272;28;43437;-72
2022/09/13 06:09:47;;;;;;;4.27;3.87;;;23.40;65.70;;;;;;4972142;28;45264;-72
2022/09/13 06:12:15;;;;;;;4.07;3.40;;;23.40;66.40;;;;;;4995070;28;43790;-72
2022/09/13 06:14:42;;;;;;;3.07;2.87;;;23.40;66.30;;;;;;5002117;28;43455;-73
2022/09/13 06:17:10;;;;;;;3.80;3.37;;;23.50;65.90;;;;;;4972940;28;43493;-72
2022/09/13 06:19:39;;;;;;;3.50;3.20;;;23.70;65.40;;;;;;4989674;28;43612;-71
2022/09/13 06:22:07;;;;;;;3.63;3.33;;;23.90;64.80;;;;;;4976770;28;44414;-72
2022/09/13 06:24:36;;;;;;;4.13;3.17;;;24.10;64.00;;;;;;4998794;28;43429;-72
2022/09/13 06:27:04;;;;;;;3.63;3.33;;;24.40;63.30;;;;;;4976618;28;43410;-72
2022/09/13 06:29:32;;;;;;;3.10;2.90;;;24.60;62.50;;;;;;4973367;28;45665;-72
2022/09/13 06:32:00;;;;;;;3.30;3.00;;;24.80;61.90;;;;;;4983050;28;44458;-72
2022/09/13 06:34:28;;;;;;;3.60;3.30;;;25.00;61.50;;;;;;4999348;28;43478;-75
2022/09/13 06:36:59;;;;;;;3.30;3.00;;;25.10;60.90;;;;;;4992460;28;43555;-72
2022/09/13 06:39:28;;;;;;;3.50;3.20;;;25.20;60.70;;;;;;4981394;28;45353;-73
2022/09/13 06:41:56;;;;;;;3.10;2.90;;;25.20;60.50;;;;;;4998392;28;43392;-72
2022/09/13 06:44:38;;;;;;;3.17;2.93;;;25.10;60.80;;;;;;4975127;28;43407;-72
2022/09/13 06:47:06;;;;;;;3.17;2.97;;;24.90;61.50;;;;;;4990901;28;43393;-73
2022/09/13 06:49:34;;;;;;;3.07;2.87;;;24.70;62.20;;;;;;4989500;28;43605;-74
2022/09/13 06:52:04;;;;;;;3.10;2.87;;;24.60;62.50;;;;;;4997836;28;44274;-71
2022/09/13 06:54:31;;;;;;;3.23;3.03;;;24.50;62.80;;;;;;4982590;28;43416;-71
2022/09/13 06:57:01;;;;;;;2.83;2.70;;;24.30;63.10;;;;;;4996273;28;43403;-73
2022/09/13 06:59:29;;;;;;;3.33;3.13;;;24.20;63.60;;;;;;4983823;28;44625;-74
2022/09/13 07:01:57;;;;;;;3.10;2.80;;;24.00;64.10;;;;;;4993600;28;43943;-72
2022/09/13 07:04:30;;;;;;;2.80;2.60;;;24.00;64.10;;;;;;4973812;28;43471;-73
2022/09/13 07:06:58;;;;;;;3.17;2.90;;;24.10;63.70;;;;;;4996384;28;43488;-73
2022/09/13 07:09:27;;;;;;;3.43;3.17;;;24.30;63.40;;;;;;5001691;28;43581;-73
2022/09/13 07:11:55;;;;;;;2.77;2.67;;;24.40;63.10;;;;;;4993394;28;43699;-73
2022/09/13 07:14:24;;;;;;;3.13;2.90;;;24.30;63.20;;;;;;4974761;28;43531;-71
2022/09/13 07:16:52;;;;;;;3.00;2.90;;;24.20;63.30;;;;;;4999453;28;44033;-73
2022/09/13 07:19:22;;;;;;;3.37;3.17;;;24.10;63.80;;;;;;4990976;28;43830;-72
2022/09/13 07:21:50;;;;;;;2.90;2.80;;;24.00;64.30;;;;;;4989435;28;43413;-71
2022/09/13 07:24:19;;;;;;;2.73;2.57;;;23.90;64.40;;;;;;4976313;28;43386;-72
2022/09/13 07:26:49;;;;;;;2.83;2.70;;;23.90;64.50;;;;;;4988714;28;44001;-72
2022/09/13 07:29:18;;;;;;;3.50;3.20;;;23.80;64.70;;;;;;4975219;28;45959;-73
2022/09/13 07:31:46;;;;;;;3.10;2.90;;;23.70;65.20;;;;;;4999455;28;43489;-73
2022/09/13 07:34:16;;;;;;;2.83;2.63;;;23.70;65.20;;;;;;4996116;28;43397;-72
2022/09/13 07:36:45;;;;;;;2.93;2.83;;;23.80;65.00;;;;;;4989301;28;43405;-73
2022/09/13 07:39:13;;;;;;;3.13;2.83;;;23.90;64.80;;;;;;4999283;28;43938;-73
2022/09/13 07:41:48;;;;;;;2.77;2.67;;;23.90;64.70;;;;;;4988397;28;43469;-72
2022/09/13 07:44:16;;;;;;;2.90;2.70;;;23.80;64.80;;;;;;4991589;28;43506;-73
2022/09/13 07:46:44;;;;;;;3.20;3.00;;;23.70;65.10;;;;;;4988772;28;43377;-71
2022/09/13 07:49:12;;;;;;;3.00;2.80;;;23.70;65.10;;;;;;4980250;28;45263;-72
2022/09/13 07:51:41;;;;;;;2.90;2.70;;;23.70;65.10;;;;;;4996982;28;43433;-71
2022/09/13 07:54:11;;;;;;;2.60;2.50;;;23.70;65.10;;;;;;4975619;28;43374;-74
2022/09/13 07:56:39;;;;;;;2.50;2.40;;;23.60;65.50;;;;;;4989932;28;43463;-73
2022/09/13 07:59:12;;;;;;;2.73;2.63;;;23.60;65.60;;;;;;4989416;28;44152;-74
2022/09/13 08:01:40;;;;;;;3.17;2.90;;;23.60;65.50;;;;;;4997899;28;43436;-71
2022/09/13 08:04:09;;;;;;;2.80;2.70;;;23.60;65.60;;;;;;4990992;28;43400;-72
2022/09/13 08:06:37;;;;;;;2.57;2.40;;;23.50;65.60;;;;;;4999772;28;43402;-73
2022/09/13 08:09:06;;;;;;;2.73;2.63;;;23.50;65.90;;;;;;4977414;28;46030;-72
2022/09/13 08:11:35;;;;;;;2.57;2.47;;;23.60;65.90;;;;;;4985541;28;45099;-72
2022/09/13 08:14:03;;;;;;;2.73;2.63;;;23.70;65.40;;;;;;4990305;28;44142;-73
2022/09/13 08:16:33;;;;;;;2.53;2.43;;;23.90;64.80;;;;;;5001266;28;43467;-72
2022/09/13 08:19:01;;;;;;;2.47;2.37;;;24.00;64.50;;;;;;4980426;28;45963;-72
2022/09/13 08:21:32;;;;;;;2.50;2.40;;;24.00;64.50;;;;;;4988733;28;43494;-71
2022/09/13 08:24:00;;;;;;;2.60;2.50;;;23.90;64.40;;;;;;4995474;28;43855;-72
2022/09/13 08:26:28;;;;;;;2.73;2.57;;;23.80;64.70;;;;;;4993431;28;43789;-74
2022/09/13 08:28:57;;;;;;;2.40;2.30;;;23.70;65.20;;;;;;4975966;28;46010;-72
2022/09/13 08:31:24;;;;;;;2.83;2.70;;;23.70;65.30;;;;;;4974337;28;44859;-71
2022/09/13 08:33:54;;;;;;;2.90;2.80;;;23.60;65.30;;;;;;4988423;28;43334;-71
2022/09/13 08:36:23;;;;;;;2.60;2.50;;;23.60;65.30;;;;;;4973742;28;43512;-72
2022/09/13 08:38:52;;;;;;;2.57;2.47;;;23.50;65.70;;;;;;4996012;28;43831;-73
2022/09/13 08:41:52;;;;;;;2.57;2.47;;;23.50;65.80;;;;;;4988530;28;43441;-72
2022/09/13 08:44:25;;;;;;;2.57;2.47;;;23.50;65.70;;;;;;4974712;28;44005;-73
2022/09/13 08:46:53;;;;;;;2.63;2.53;;;23.50;65.70;;;;;;4987786;28;43478;-72
2022/09/13 08:49:23;;;;;;;2.60;2.40;;;23.40;65.90;;;;;;4987598;28;43589;-72
2022/09/13 08:51:52;;;;;;;2.33;2.23;;;23.50;66.20;;;;;;4998519;28;43525;-73
2022/09/13 08:54:20;;;;;;;2.33;2.23;;;23.50;65.90;;;;;;4991624;28;43515;-72
2022/09/13 08:56:51;;;;;;;2.13;2.10;;;23.70;65.50;;;;;;4989209;28;43427;-72
2022/09/13 08:59:34;;;;;;;3.27;3.07;;;23.80;65.00;;;;;;4999191;28;43917;-71
2022/09/13 09:02:11;;;;;;;2.73;2.60;;;23.90;64.90;;;;;;4990616;28;43477;-71
2022/09/13 09:04:44;;;;;;;2.20;2.10;;;23.80;64.80;;;;;;4975456;28;43427;-72
2022/09/13 09:07:13;;;;;;;2.40;2.30;;;23.70;64.90;;;;;;4991140;28;43428;-73
2022/09/13 09:09:43;;;;;;;2.57;2.43;;;23.60;65.40;;;;;;4988924;28;43613;-74
2022/09/13 09:12:15;;;;;;;2.70;2.60;;;23.60;65.60;;;;;;4995727;28;43914;-73
2022/09/13 09:14:45;;;;;;;2.63;2.53;;;23.60;65.50;;;;;;4988341;28;43429;-72
2022/09/13 09:17:14;;;;;;;2.17;2.17;;;23.50;65.50;;;;;;4992744;28;43414;-72
2022/09/13 09:19:44;;;;;;;2.23;2.13;;;23.50;65.80;;;;;;4972990;28;44643;-71
2022/09/13 09:22:13;;;;;;;2.23;2.13;;;23.50;66.10;;;;;;4971282;28;44652;-70
2022/09/13 09:24:43;;;;;;;2.13;2.13;;;23.50;66.10;;;;;;4995652;28;43931;-73
2022/09/13 09:27:14;;;;;;;2.13;2.03;;;23.40;65.90;;;;;;4995624;28;43554;-72
2022/09/13 09:29:42;;;;;;;1.83;1.83;;;23.40;65.80;;;;;;4995172;28;43766;-72
2022/09/13 09:32:19;;;;;;;2.13;2.13;;;23.40;66.20;;;;;;4989727;28;44403;-72
2022/09/13 09:34:53;;;;;;;1.87;1.83;;;23.40;66.40;;;;;;4986798;28;43903;-73
2022/09/13 09:37:21;;;;;;;2.33;2.23;;;23.50;66.20;;;;;;4998845;28;43428;-73
2022/09/13 09:39:49;;;;;;;2.10;2.00;;;23.60;65.70;;;;;;4994493;28;44038;-71
2022/09/13 09:42:19;;;;;;;2.40;2.30;;;23.80;65.30;;;;;;4990278;28;43391;-73
2022/09/13 09:44:49;;;;;;;2.10;2.00;;;23.90;65.00;;;;;;4974071;28;44119;-72
2022/09/13 09:47:19;;;;;;;2.10;2.00;;;23.90;65.00;;;;;;4976198;28;43522;-73
2022/09/13 09:52:38;;;;;;;2.50;2.40;;;23.70;65.20;;;;;;4989350;28;43552;-72
2022/09/13 09:55:20;;;;;;;1.87;1.87;;;23.60;65.60;;;;;;4976110;28;43461;-73
2022/09/13 09:57:56;;;;;;;2.10;2.10;;;23.60;65.60;;;;;;4990075;28;43908;-72
2022/09/13 10:00:25;;;;;;;1.90;1.90;;;23.50;65.50;;;;;;4992951;28;43874;-73
2022/09/13 10:02:54;;;;;;;2.00;2.00;;;23.50;65.80;;;;;;4978511;28;44576;-71
2022/09/13 10:05:22;;;;;;;2.30;2.20;;;23.40;66.20;;;;;;4973769;28;43418;-71
2022/09/13 10:07:57;;;;;;;2.00;2.00;;;23.50;66.10;;;;;;4989717;28;43461;-71
2022/09/13 10:10:26;;;;;;;2.30;2.30;;;23.40;65.90;;;;;;4995626;28;43591;-71
2022/09/13 10:12:55;;;;;;;2.43;2.33;;;23.40;65.90;;;;;;4986559;28;43448;-72
2022/09/13 10:15:25;;;;;;;2.17;2.10;;;23.40;66.10;;;;;;4992883;28;43817;-74
2022/09/13 10:18:07;;;;;;;2.13;2.10;;;23.40;66.50;;;;;;4991952;28;43854;-72
2022/09/13 10:21:03;;;;;;;1.80;1.80;;;23.40;66.30;;;;;;4973235;28;45353;-72
2022/09/13 10:23:33;;;;;;;2.23;2.13;;;23.60;65.90;;;;;;4994742;28;43351;-71
2022/09/13 10:26:06;;;;;;;1.90;1.90;;;23.70;65.30;;;;;;4999974;28;43735;-72
2022/09/13 10:28:35;;;;;;;1.77;1.77;;;23.80;65.10;;;;;;4996627;28;43481;-72
2022/09/13 10:31:06;;;;;;;1.90;1.90;;;23.80;65.00;;;;;;4992568;28;44827;-74
2022/09/13 10:33:36;;;;;;;1.80;1.80;;;23.70;65.10;;;;;;4989369;28;43392;-72
2022/09/13 10:36:05;;;;;;;2.10;2.00;;;23.60;65.50;;;;;;4973093;28;43478;-73
2022/09/13 10:38:37;;;;;;;2.00;2.00;;;23.60;66.60;;;;;;4979582;28;44092;-74
2022/09/13 10:41:19;;;;;;;2.10;2.00;;;23.60;65.70;;;;;;4975986;28;45673;-73
2022/09/13 10:43:47;;;;;;;1.83;1.83;;;23.50;65.70;;;;;;4974403;28;44709;-72
2022/09/13 10:46:21;;;;;;;2.20;2.10;;;23.50;65.90;;;;;;4990676;28;43412;-71
2022/09/13 10:48:54;;;;;;;2.10;2.00;;;23.40;66.10;;;;;;4989951;28;43424;-74
2022/09/13 10:51:34;;;;;;;1.97;1.90;;;23.40;66.00;;;;;;4994217;28;43612;-73
2022/09/13 10:54:24;;;;;;;1.57;1.57;;;23.40;66.10;;;;;;4998436;28;43900;-71
2022/09/13 10:56:52;;;;;;;2.10;2.00;;;23.40;66.20;;;;;;4988821;28;43778;-73
2022/09/13 10:59:22;;;;;;;2.10;2.00;;;23.40;66.40;;;;;;4974814;28;43598;-72
2022/09/13 11:02:03;;;;;;;1.90;1.90;;;23.40;66.30;;;;;;4988907;28;44013;-73
2022/09/13 11:04:53;;;;;;;1.80;1.80;;;23.50;65.80;;;;;;4989574;28;43939;-72
2022/09/13 11:07:36;;;;;;;1.80;1.80;;;23.70;65.40;;;;;;4994417;28;43502;-72
2022/09/13 11:10:08;;;;;;;1.90;1.90;;;23.70;65.20;;;;;;4997866;28;43492;-72
2022/09/13 11:12:40;;;;;;;1.60;1.60;;;23.70;65.30;;;;;;4977297;28;45926;-72
2022/09/13 11:15:17;;;;;;;2.07;1.97;;;23.60;65.40;;;;;;4976028;28;44858;-73
2022/09/13 11:18:03;;;;;;;2.10;2.00;;;23.50;65.70;;;;;;4998002;28;43428;-72
2022/09/13 11:20:35;;;;;;;1.73;1.73;;;23.50;65.80;;;;;;4996406;28;43564;-73
2022/09/13 11:23:18;;;;;;;1.80;1.80;;;23.50;65.90;;;;;;4997921;28;43775;-75
2022/09/13 11:25:57;;;;;;;1.77;1.77;;;23.40;65.80;;;;;;4985559;28;44338;-71
2022/09/13 11:28:28;;;;;;;1.90;1.90;;;23.40;66.10;;;;;;4991365;28;43437;-72
2022/09/13 11:31:13;;;;;;;1.90;1.80;;;23.40;66.20;;;;;;4989309;28;43486;-73
2022/09/13 11:33:48;;;;;;;1.90;1.90;;;23.40;66.00;;;;;;4993816;28;43683;-72
2022/09/13 11:36:49;;;;;;;1.90;1.90;;;23.40;66.00;;;;;;4992525;28;43449;-73
2022/09/13 11:39:23;;;;;;;1.73;1.70;;;23.40;66.30;;;;;;4963084;28;43970;-74
2022/09/13 11:41:56;;;;;;;1.70;1.70;;;23.40;66.50;;;;;;4994095;28;44100;-73
2022/09/13 11:44:48;;;;;;;1.50;1.50;;;23.40;66.10;;;;;;4996512;28;43864;-73
2022/09/13 11:47:20;;;;;;;1.67;1.67;;;23.60;65.70;;;;;;4990211;28;43479;-73
2022/09/13 11:50:04;;;;;;;1.97;1.87;;;23.70;65.20;;;;;;4971643;28;43477;-73
2022/09/13 11:52:38;;;;;;;1.63;1.63;;;23.80;65.00;;;;;;4988910;28;43456;-72
2022/09/13 11:55:12;;;;;;;1.67;1.67;;;23.70;64.90;;;;;;4993938;28;43611;-72
2022/09/13 11:57:43;;;;;;;2.03;2.03;;;23.70;65.10;;;;;;4999061;28;43427;-72
2022/09/13 12:00:19;;;;;;;1.60;1.60;;;23.60;65.60;;;;;;4975297;28;43518;-70
2022/09/13 12:02:51;;;;;;;1.80;1.80;;;23.50;65.60;;;;;;4999032;28;43680;-72
2022/09/13 12:05:21;;;;;;;1.87;1.87;;;23.50;65.50;;;;;;4996134;28;43847;-71
2022/09/13 12:07:52;;;;;;;1.60;1.60;;;23.50;65.70;;;;;;4999064;28;43916;-73
2022/09/13 12:10:22;;;;;;;1.60;1.60;;;23.40;65.90;;;;;;4978102;28;43339;-72
2022/09/13 12:12:52;;;;;;;1.87;1.87;;;23.40;66.00;;;;;;4974627;28;43422;-72
2022/09/13 12:15:22;;;;;;;1.80;1.80;;;23.40;65.90;;;;;;4975346;28;44584;-72
2022/09/13 12:17:52;;;;;;;1.80;1.80;;;23.40;66.70;;;;;;4983772;28;44348;-72
2022/09/13 12:20:28;;;;;;;1.40;1.40;;;23.40;66.00;;;;;;5004560;28;43424;-71
2022/09/13 12:22:56;;;;;;;1.70;1.70;;;23.30;66.30;;;;;;4988689;28;43426;-73
2022/09/13 12:25:25;;;;;;;1.50;1.50;;;23.40;66.30;;;;;;4978602;28;45261;-71
2022/09/13 12:27:59;;;;;;;1.80;1.80;;;23.50;66.00;;;;;;4996865;28;43553;-72
2022/09/13 12:30:29;;;;;;;1.70;1.70;;;23.60;65.40;;;;;;4975230;28;43494;-74
2022/09/13 12:32:56;;;;;;;1.70;1.70;;;23.70;65.20;;;;;;4996482;28;43458;-73
2022/09/13 12:35:27;;;;;;;1.53;1.53;;;23.70;65.10;;;;;;4988830;28;43949;-72
2022/09/13 12:38:33;;;;;;;1.80;1.80;;;23.60;65.20;;;;;;4974523;28;45322;-72
2022/09/13 12:41:13;;;;;;;1.60;1.60;;;23.60;65.50;;;;;;4978802;28;43558;-73
2022/09/13 12:44:01;;;;;;;1.70;1.70;;;23.50;65.70;;;;;;4982163;28;43408;-72
2022/09/13 12:46:52;;;;;;;1.80;1.80;;;23.50;65.80;;;;;;4998747;28;43612;-73
2022/09/13 12:49:26;;;;;;;1.70;1.70;;;23.50;65.80;;;;;;4994369;28;43883;-71
2022/09/13 12:52:14;;;;;;;1.60;1.60;;;23.40;66.00;;;;;;4999036;28;43404;-72
2022/09/13 12:55:03;;;;;;;1.60;1.60;;;23.40;66.10;;;;;;4978014;28;43426;-72
2022/09/13 12:57:37;;;;;;;1.63;1.63;;;23.40;66.00;;;;;;4993960;28;43605;-72
2022/09/13 13:00:21;;;;;;;1.63;1.63;;;23.40;66.00;;;;;;4998278;28;43432;-72
2022/09/13 13:02:56;;;;;;;1.80;1.80;;;23.40;66.10;;;;;;4988710;28;43397;-72
2022/09/13 13:05:27;;;;;;;1.50;1.50;;;23.40;66.40;;;;;;4972692;28;44029;-72
2022/09/13 13:07:56;;;;;;;1.50;1.50;;;23.40;66.20;;;;;;4988533;28;43609;-73
2022/09/13 13:10:26;;;;;;;1.80;1.70;;;23.50;65.80;;;;;;4990271;28;43496;-71
2022/09/13 13:12:54;;;;;;;1.73;1.73;;;23.70;65.40;;;;;;4997392;28;43492;-73
2022/09/13 13:15:55;;;;;;;1.40;1.40;;;23.70;64.90;;;;;;4994142;28;43871;-73